createdAt,value
2018-01-13T00:01:45.901Z,4.50
2018-01-13T00:04:12.273Z,4.40
2018-01-13T00:06:38.667Z,4.40
2018-01-13T00:09:04.982Z,4.40
2018-01-13T00:11:32.178Z,4.30
2018-01-13T00:13:59.357Z,4.20
2018-01-13T00:16:25.696Z,4.20
2018-01-13T00:18:52.020Z,4.20
2018-01-13T00:21:18.358Z,4.20
2018-01-13T00:23:44.880Z,4.20
2018-01-13T00:26:11.239Z,4.10
2018-01-13T00:28:37.624Z,4.10
2018-01-13T00:31:04.306Z,4.10
2018-01-13T00:33:30.646Z,4.20
2018-01-13T00:35:57.051Z,4.20
2018-01-13T00:38:24.168Z,4.00
2018-01-13T00:40:51.295Z,4.00
2018-01-13T00:43:17.799Z,3.90
2018-01-13T00:45:44.163Z,3.90
2018-01-13T00:48:10.487Z,3.90
2018-01-13T00:50:36.834Z,3.90
2018-01-13T00:53:03.572Z,4.10
2018-01-13T00:55:30.738Z,3.80
2018-01-13T00:57:57.097Z,3.80
2018-01-13T01:00:23.446Z,3.80
2018-01-13T01:02:49.779Z,4.20
2018-01-13T01:05:16.145Z,3.80
2018-01-13T01:07:43.299Z,3.70
2018-01-13T01:10:09.640Z,3.70
2018-01-13T01:12:36.820Z,3.70
2018-01-13T01:15:04.115Z,3.70
2018-01-13T01:17:30.455Z,3.60
2018-01-13T01:19:56.791Z,3.70
2018-01-13T01:22:23.895Z,3.60
2018-01-13T01:24:50.244Z,3.30
2018-01-13T01:27:16.603Z,3.60
2018-01-13T01:29:42.943Z,3.60
2018-01-13T01:32:09.283Z,3.50
2018-01-13T01:34:35.627Z,3.50
2018-01-13T01:37:01.967Z,3.60
2018-01-13T01:39:28.356Z,3.50
2018-01-13T01:41:54.749Z,3.50
2018-01-13T01:44:21.111Z,3.50
2018-01-13T01:46:47.431Z,3.50
2018-01-13T01:49:14.559Z,3.50
2018-01-13T01:51:40.966Z,3.50
2018-01-13T01:54:08.049Z,3.40
2018-01-13T01:56:34.427Z,3.40
2018-01-13T01:59:00.811Z,3.40
2018-01-13T02:01:27.227Z,3.40
2018-01-13T02:03:53.567Z,3.40
2018-01-13T02:06:19.931Z,3.40
2018-01-13T02:08:47.019Z,3.50
2018-01-13T02:11:13.422Z,3.50
2018-01-13T02:13:39.759Z,3.50
2018-01-13T02:16:06.252Z,3.60
2018-01-13T02:18:32.671Z,3.50
2018-01-13T02:20:59.019Z,3.50
2018-01-13T02:23:25.369Z,3.50
2018-01-13T02:25:51.715Z,3.50
2018-01-13T02:28:18.795Z,3.50
2018-01-13T02:30:45.143Z,3.50
2018-01-13T02:33:11.495Z,3.50
2018-01-13T02:35:37.859Z,3.40
2018-01-13T02:38:04.880Z,3.30
2018-01-13T02:40:31.364Z,3.30
2018-01-13T02:42:57.912Z,3.20
2018-01-13T02:45:24.268Z,3.20
2018-01-13T02:47:50.614Z,3.20
2018-01-13T02:50:16.959Z,3.10
2018-01-13T02:52:44.047Z,3.10
2018-01-13T02:55:10.403Z,3.10
2018-01-13T02:57:36.779Z,3.10
2018-01-13T03:00:03.620Z,3.20
2018-01-13T03:02:29.990Z,3.20
2018-01-13T03:04:56.425Z,3.20
2018-01-13T03:07:23.569Z,3.30
2018-01-13T03:09:49.960Z,3.20
2018-01-13T03:12:17.109Z,3.30
2018-01-13T03:14:43.477Z,3.20
2018-01-13T03:17:09.817Z,3.30
2018-01-13T03:19:36.207Z,3.50
2018-01-13T03:22:02.885Z,3.40
2018-01-13T03:24:29.382Z,3.30
2018-01-13T03:26:55.744Z,3.30
2018-01-13T03:29:22.087Z,3.30
2018-01-13T03:31:48.462Z,3.30
2018-01-13T03:34:14.807Z,3.30
2018-01-13T03:36:41.167Z,3.30
2018-01-13T03:39:08.251Z,3.20
2018-01-13T03:41:34.674Z,3.20
2018-01-13T03:44:01.860Z,3.20
2018-01-13T03:46:28.296Z,3.20
2018-01-13T03:48:55.363Z,3.20
2018-01-13T03:51:21.679Z,3.50
2018-01-13T03:53:48.011Z,3.20
2018-01-13T03:56:14.323Z,3.20
2018-01-13T03:58:40.685Z,3.10
2018-01-13T04:01:07.015Z,3.10
2018-01-13T04:03:33.387Z,3.10
2018-01-13T04:05:59.768Z,3.10
2018-01-13T04:08:26.183Z,3.50
2018-01-13T04:10:53.261Z,3.20
2018-01-13T04:13:20.323Z,3.10
2018-01-13T04:15:47.419Z,3.10
2018-01-13T04:18:13.777Z,3.10
2018-01-13T04:20:40.139Z,3.10
2018-01-13T04:23:07.228Z,3.00
2018-01-13T04:25:33.600Z,3.30
2018-01-13T04:27:59.931Z,3.30
2018-01-13T04:30:26.934Z,3.30
2018-01-13T04:32:53.250Z,3.30
2018-01-13T04:35:19.624Z,3.20
2018-01-13T04:37:46.050Z,3.10
2018-01-13T04:40:12.408Z,3.10
2018-01-13T04:42:38.787Z,3.20
2018-01-13T04:45:05.903Z,3.10
2018-01-13T04:47:32.271Z,3.10
2018-01-13T04:49:59.356Z,3.20
2018-01-13T04:52:26.448Z,3.20
2018-01-13T04:54:52.783Z,3.20
2018-01-13T04:57:19.135Z,3.20
2018-01-13T04:59:45.494Z,3.20
2018-01-13T05:02:11.875Z,3.20
2018-01-13T05:04:38.963Z,3.20
2018-01-13T05:07:05.347Z,3.20
2018-01-13T05:09:31.682Z,3.20
2018-01-13T05:11:58.055Z,3.20
2018-01-13T05:14:24.451Z,3.20
2018-01-13T05:16:50.796Z,3.20
2018-01-13T05:19:17.151Z,3.30
2018-01-13T05:21:43.491Z,3.30
2018-01-13T05:24:10.591Z,3.30
2018-01-13T05:26:37.740Z,3.30
2018-01-13T05:29:04.388Z,3.30
2018-01-13T05:31:30.714Z,3.40
2018-01-13T05:33:57.082Z,3.40
2018-01-13T05:36:23.431Z,3.40
2018-01-13T05:38:49.807Z,3.40
2018-01-13T05:41:16.204Z,3.50
2018-01-13T05:43:43.302Z,3.40
2018-01-13T05:46:09.657Z,3.40
2018-01-13T05:48:35.995Z,3.40
2018-01-13T05:51:02.355Z,3.40
2018-01-13T05:53:28.639Z,3.40
2018-01-13T05:55:55.728Z,3.30
2018-01-13T05:58:22.059Z,3.30
2018-01-13T06:00:49.203Z,3.20
2018-01-13T06:03:16.299Z,3.10
2018-01-13T06:05:42.618Z,3.10
2018-01-13T06:08:08.952Z,3.00
2018-01-13T06:10:36.100Z,2.80
2018-01-13T06:13:02.509Z,2.80
2018-01-13T06:15:28.855Z,2.90
2018-01-13T06:17:55.259Z,2.60
2018-01-13T06:20:21.599Z,2.70
2018-01-13T06:22:47.985Z,2.20
2018-01-13T06:25:14.493Z,2.10
2018-01-13T06:27:40.848Z,2.20
2018-01-13T06:30:07.224Z,2.10
2018-01-13T06:32:33.584Z,1.60
2018-01-13T06:35:00.943Z,1.40
2018-01-13T06:37:27.283Z,1.40
2018-01-13T06:39:53.671Z,1.40
2018-01-13T06:42:20.099Z,1.30
2018-01-13T06:44:47.208Z,1.20
2018-01-13T06:47:13.561Z,1.20
2018-01-13T06:49:39.956Z,1.40
2018-01-13T06:52:07.027Z,1.00
2018-01-13T06:54:34.168Z,1.00
2018-01-13T06:57:00.859Z,1.00
2018-01-13T06:59:28.262Z,1.00
2018-01-13T07:01:56.700Z,0.90
2018-01-13T07:04:23.246Z,1.00
2018-01-13T07:06:49.936Z,1.10
2018-01-13T07:09:18.203Z,1.20
2018-01-13T07:11:44.891Z,1.10
2018-01-13T07:14:11.575Z,1.30
2018-01-13T07:16:38.240Z,1.40
2018-01-13T07:19:05.687Z,1.60
2018-01-13T07:21:32.402Z,1.60
2018-01-13T07:23:59.506Z,1.70
2018-01-13T07:26:27.820Z,1.20
2018-01-13T07:28:54.631Z,2.80
2018-01-13T07:31:21.291Z,2.00
2018-01-13T07:33:49.598Z,2.10
2018-01-13T07:36:17.324Z,2.10
2018-01-13T07:38:44.031Z,2.10
2018-01-13T07:41:10.615Z,2.20
2018-01-13T07:43:37.971Z,2.20
2018-01-13T07:46:05.038Z,2.20
2018-01-13T07:48:31.638Z,2.30
2018-01-13T07:50:58.552Z,2.00
2018-01-13T07:53:25.257Z,2.40
2018-01-13T07:55:53.810Z,2.30
2018-01-13T07:58:21.804Z,2.60
2018-01-13T08:00:49.265Z,2.70
2018-01-13T08:03:16.309Z,2.70
2018-01-13T08:05:44.120Z,3.00
2018-01-13T08:08:11.201Z,3.10
2018-01-13T08:10:39.195Z,3.30
2018-01-13T08:13:06.644Z,3.70
2018-01-13T08:15:33.220Z,3.40
2018-01-13T08:17:59.748Z,3.80
2018-01-13T08:20:28.199Z,3.90
2018-01-13T08:22:55.605Z,4.00
2018-01-13T08:25:22.407Z,4.20
2018-01-13T08:27:49.579Z,4.40
2018-01-13T08:30:16.051Z,4.40
2018-01-13T08:32:42.534Z,4.50
2018-01-13T08:35:12.317Z,4.50
2018-01-13T08:37:38.825Z,4.50
2018-01-13T08:40:05.754Z,4.60
2018-01-13T08:42:32.328Z,4.60
2018-01-13T08:44:59.679Z,4.70
2018-01-13T08:47:27.309Z,4.70
2018-01-13T08:49:53.941Z,4.30
2018-01-13T08:52:20.511Z,4.80
2018-01-13T08:54:47.868Z,4.90
2018-01-13T08:57:14.463Z,4.90
2018-01-13T08:59:41.096Z,4.90
2018-01-13T09:02:07.897Z,4.90
2018-01-13T09:04:35.230Z,5.00
2018-01-13T09:07:01.814Z,5.00
2018-01-13T09:09:29.050Z,5.10
2018-01-13T09:11:56.907Z,5.20
2018-01-13T09:14:24.140Z,5.20
2018-01-13T09:16:50.842Z,5.30
2018-01-13T09:19:18.049Z,5.50
2018-01-13T09:21:45.251Z,5.40
2018-01-13T09:24:12.590Z,5.50
2018-01-13T09:26:39.824Z,5.50
2018-01-13T09:29:06.678Z,5.60
2018-01-13T09:31:34.051Z,5.60
2018-01-13T09:34:00.750Z,5.70
2018-01-13T09:36:28.312Z,5.80
2018-01-13T09:38:55.123Z,5.80
2018-01-13T09:41:22.419Z,5.90
2018-01-13T09:43:49.801Z,5.90
2018-01-13T09:46:17.833Z,6.00
2018-01-13T09:48:46.048Z,6.00
2018-01-13T09:51:13.371Z,6.00
2018-01-13T09:53:40.809Z,6.10
2018-01-13T09:56:10.299Z,6.00
2018-01-13T09:58:37.441Z,6.00
2018-01-13T10:01:04.010Z,6.10
2018-01-13T10:03:31.232Z,6.10
2018-01-13T10:05:57.753Z,6.00
2018-01-13T10:08:24.899Z,6.10
2018-01-13T10:10:51.567Z,6.20
2018-01-13T10:13:18.278Z,6.20
2018-01-13T10:15:45.962Z,6.20
2018-01-13T10:18:13.324Z,6.20
2018-01-13T10:20:40.182Z,6.20
2018-01-13T10:23:08.019Z,6.20
2018-01-13T10:25:35.419Z,6.20
2018-01-13T10:28:02.014Z,5.90
2018-01-13T10:30:28.567Z,6.20
2018-01-13T10:32:55.071Z,6.20
2018-01-13T10:35:23.173Z,6.30
2018-01-13T10:37:49.715Z,6.30
2018-01-13T10:40:16.222Z,6.30
2018-01-13T10:42:42.728Z,6.30
2018-01-13T10:45:09.207Z,6.40
2018-01-13T10:47:35.743Z,6.40
2018-01-13T10:50:02.483Z,6.40
2018-01-13T10:52:29.033Z,6.60
2018-01-13T10:54:55.621Z,6.60
2018-01-13T10:57:22.167Z,6.60
2018-01-13T10:59:49.705Z,6.60
2018-01-13T11:02:16.298Z,6.70
2018-01-13T11:04:42.716Z,6.70
2018-01-13T11:07:09.218Z,6.70
2018-01-13T11:09:36.544Z,6.70
2018-01-13T11:12:03.516Z,6.70
2018-01-13T11:14:30.165Z,6.80
2018-01-13T11:16:56.684Z,7.00
2018-01-13T11:19:24.255Z,6.90
2018-01-13T11:21:50.891Z,7.00
2018-01-13T11:24:18.065Z,7.00
2018-01-13T11:26:44.855Z,7.00
2018-01-13T11:29:11.316Z,6.90
2018-01-13T11:31:37.768Z,6.80
2018-01-13T11:34:04.679Z,6.70
2018-01-13T11:36:32.030Z,6.40
2018-01-13T11:38:59.528Z,6.50
2018-01-13T11:41:26.674Z,6.30
2018-01-13T11:43:53.892Z,6.40
2018-01-13T11:46:22.068Z,6.40
2018-01-13T11:48:50.557Z,6.50
2018-01-13T11:51:17.114Z,6.50
2018-01-13T11:53:44.325Z,6.70
2018-01-13T11:56:11.875Z,6.80
2018-01-13T11:58:38.431Z,6.80
2018-01-13T12:01:05.209Z,6.90
2018-01-13T12:03:31.700Z,7.00
2018-01-13T12:05:58.262Z,7.00
2018-01-13T12:08:24.823Z,7.10
2018-01-13T12:10:52.142Z,7.20
2018-01-13T12:13:18.684Z,7.30
2018-01-13T12:15:46.017Z,6.90
2018-01-13T12:18:12.929Z,7.40
2018-01-13T12:20:43.363Z,7.40
2018-01-13T12:23:10.018Z,7.30
2018-01-13T12:25:38.774Z,7.40
2018-01-13T12:28:05.713Z,7.40
2018-01-13T12:30:33.199Z,7.30
2018-01-13T12:33:00.891Z,7.30
2018-01-13T12:35:28.580Z,7.30
2018-01-13T12:37:56.601Z,7.30
2018-01-13T12:40:23.928Z,7.30
2018-01-13T12:42:51.326Z,7.50
2018-01-13T12:45:18.585Z,7.50
2018-01-13T12:47:46.019Z,7.60
2018-01-13T12:50:13.336Z,7.80
2018-01-13T12:52:40.220Z,7.90
2018-01-13T12:55:07.726Z,8.10
2018-01-13T12:57:34.398Z,8.10
2018-01-13T13:00:01.985Z,7.90
2018-01-13T13:02:29.332Z,7.80
2018-01-13T13:04:56.656Z,7.70
2018-01-13T13:07:23.801Z,7.60
2018-01-13T13:09:50.481Z,7.60
2018-01-13T13:12:17.571Z,7.50
2018-01-13T13:14:44.804Z,7.50
2018-01-13T13:17:11.418Z,7.50
2018-01-13T13:19:38.704Z,7.40
2018-01-13T13:22:07.113Z,7.50
2018-01-13T13:24:34.728Z,7.50
2018-01-13T13:27:01.829Z,7.50
2018-01-13T13:29:28.673Z,7.30
2018-01-13T13:31:55.249Z,7.10
2018-01-13T13:34:22.644Z,7.00
2018-01-13T13:36:49.336Z,6.90
2018-01-13T13:39:15.818Z,7.00
2018-01-13T13:41:42.316Z,7.00
2018-01-13T13:44:10.320Z,7.00
2018-01-13T13:46:36.968Z,6.90
2018-01-13T13:49:04.636Z,7.00
2018-01-13T13:51:31.194Z,6.90
2018-01-13T13:53:58.428Z,6.90
2018-01-13T13:56:25.434Z,6.80
2018-01-13T13:58:59.040Z,6.80
2018-01-13T14:01:28.779Z,6.70
2018-01-13T14:03:53.137Z,6.50
2018-01-13T14:06:19.769Z,6.50
2018-01-13T14:08:47.565Z,6.50
2018-01-13T14:11:14.763Z,6.50
2018-01-13T14:13:42.126Z,6.50
2018-01-13T14:16:10.186Z,6.70
2018-01-13T14:18:37.642Z,6.60
2018-01-13T14:21:06.410Z,6.70
2018-01-13T14:23:34.151Z,6.80
2018-01-13T14:26:01.758Z,6.80
2018-01-13T14:28:28.642Z,6.90
2018-01-13T14:30:56.276Z,7.00
2018-01-13T14:33:22.935Z,7.00
2018-01-13T14:35:50.147Z,7.00
2018-01-13T14:38:16.960Z,7.10
2018-01-13T14:40:43.614Z,7.20
2018-01-13T14:43:10.988Z,7.20
2018-01-13T14:45:39.055Z,7.20
2018-01-13T14:48:10.087Z,7.20
2018-01-13T14:50:37.851Z,7.20
2018-01-13T14:53:05.328Z,7.10
2018-01-13T14:55:32.012Z,6.90
2018-01-13T14:57:58.578Z,7.60
2018-01-13T15:00:25.260Z,6.60
2018-01-13T15:02:53.208Z,6.40
2018-01-13T15:05:20.548Z,6.30
2018-01-13T15:07:47.124Z,6.10
2018-01-13T15:10:14.968Z,5.90
2018-01-13T15:12:41.591Z,5.90
2018-01-13T15:15:08.111Z,5.80
2018-01-13T15:17:35.393Z,5.50
2018-01-13T15:20:02.701Z,5.50
2018-01-13T15:22:29.305Z,5.50
2018-01-13T15:24:55.759Z,5.40
2018-01-13T15:27:22.231Z,5.30
2018-01-13T15:29:49.465Z,5.00
2018-01-13T15:32:16.126Z,4.90
2018-01-13T15:34:43.391Z,4.80
2018-01-13T15:37:10.137Z,4.80
2018-01-13T15:39:36.723Z,4.70
2018-01-13T15:42:03.414Z,4.70
2018-01-13T15:44:30.810Z,4.50
2018-01-13T15:46:57.958Z,4.50
2018-01-13T15:49:24.759Z,4.50
2018-01-13T15:51:52.043Z,4.40
2018-01-13T15:54:18.695Z,4.30
2018-01-13T15:56:45.199Z,4.20
2018-01-13T15:59:13.137Z,4.10
2018-01-13T16:01:39.961Z,4.10
2018-01-13T16:04:06.856Z,4.00
2018-01-13T16:06:33.557Z,4.00
2018-01-13T16:09:00.467Z,4.00
2018-01-13T16:11:27.352Z,4.10
2018-01-13T16:13:54.110Z,4.30
2018-01-13T16:16:21.291Z,4.40
2018-01-13T16:18:48.601Z,4.60
2018-01-13T16:21:15.239Z,4.70
2018-01-13T16:23:45.179Z,4.70
2018-01-13T16:26:12.027Z,3.70
2018-01-13T16:28:39.227Z,4.70
2018-01-13T16:31:05.681Z,4.70
2018-01-13T16:33:32.116Z,4.80
2018-01-13T16:35:58.493Z,4.80
2018-01-13T16:38:24.875Z,4.80
2018-01-13T16:40:51.297Z,4.80
2018-01-13T16:43:17.647Z,4.70
2018-01-13T16:45:44.130Z,4.60
2018-01-13T16:48:11.302Z,4.30
2018-01-13T16:50:38.414Z,4.30
2018-01-13T16:53:05.615Z,4.20
2018-01-13T16:55:32.040Z,4.10
2018-01-13T16:57:59.140Z,4.00
2018-01-13T17:00:25.491Z,4.00
2018-01-13T17:02:52.627Z,4.10
2018-01-13T17:05:18.983Z,4.10
2018-01-13T17:07:46.107Z,4.10
2018-01-13T17:10:12.531Z,4.10
2018-01-13T17:12:38.891Z,4.20
2018-01-13T17:15:05.416Z,4.10
2018-01-13T17:17:31.864Z,4.10
2018-01-13T17:19:58.295Z,4.00
2018-01-13T17:22:24.693Z,4.00
2018-01-13T17:24:51.382Z,3.90
2018-01-13T17:27:17.777Z,3.80
2018-01-13T17:29:44.267Z,3.70
2018-01-13T17:32:10.670Z,3.70
2018-01-13T17:34:37.776Z,3.70
2018-01-13T17:37:04.665Z,3.70
2018-01-13T17:39:31.787Z,3.50
2018-01-13T17:41:58.333Z,3.50
2018-01-13T17:44:25.581Z,3.30
2018-01-13T17:46:52.450Z,3.20
2018-01-13T17:49:18.871Z,3.20
2018-01-13T17:51:45.299Z,3.10
2018-01-13T17:54:11.767Z,3.00
2018-01-13T17:56:38.183Z,3.00
2018-01-13T17:59:05.291Z,2.90
2018-01-13T18:01:42.335Z,3.00
2018-01-13T18:04:09.528Z,2.90
2018-01-13T18:06:35.970Z,2.90
2018-01-13T18:09:02.511Z,2.90
2018-01-13T18:11:29.656Z,2.80
2018-01-13T18:13:56.030Z,2.70
2018-01-13T18:16:22.659Z,2.70
2018-01-13T18:18:49.111Z,2.80
2018-01-13T18:21:15.577Z,2.90
2018-01-13T18:23:41.967Z,3.30
2018-01-13T18:26:09.093Z,3.20
2018-01-13T18:28:35.415Z,3.20
2018-01-13T18:31:01.845Z,3.40
2018-01-13T18:33:28.439Z,3.30
2018-01-13T18:35:54.811Z,3.70
2018-01-13T18:38:21.871Z,3.70
2018-01-13T18:40:48.219Z,3.80
2018-01-13T18:43:14.600Z,3.70
2018-01-13T18:45:41.637Z,3.70
2018-01-13T18:48:08.019Z,3.70
2018-01-13T18:50:34.419Z,3.70
2018-01-13T18:53:00.806Z,3.70
2018-01-13T18:55:27.265Z,3.80
2018-01-13T18:57:53.671Z,3.70
2018-01-13T19:00:20.040Z,3.80
2018-01-13T19:02:46.378Z,3.80
2018-01-13T19:05:12.760Z,3.80
2018-01-13T19:07:39.972Z,3.80
2018-01-13T19:10:07.279Z,3.90
2018-01-13T19:12:33.630Z,3.90
2018-01-13T19:15:00.987Z,3.90
2018-01-13T19:17:27.444Z,3.90
2018-01-13T19:20:02.422Z,3.80
2018-01-13T19:22:29.523Z,3.90
2018-01-13T19:24:55.951Z,3.80
2018-01-13T19:27:22.381Z,3.90
2018-01-13T19:29:49.038Z,3.90
2018-01-13T19:32:15.597Z,3.90
2018-01-13T19:34:42.027Z,3.90
2018-01-13T19:37:08.393Z,3.60
2018-01-13T19:39:34.810Z,3.90
2018-01-13T19:42:01.556Z,3.90
2018-01-13T19:44:28.000Z,3.90
2018-01-13T19:46:54.425Z,3.90
2018-01-13T19:49:21.586Z,3.90
2018-01-13T19:51:48.725Z,3.90
2018-01-13T19:54:15.159Z,3.90
2018-01-13T19:56:41.571Z,3.90
2018-01-13T19:59:08.706Z,3.90
2018-01-13T20:01:35.854Z,3.90
2018-01-13T20:04:02.375Z,3.90
2018-01-13T20:06:29.540Z,3.90
2018-01-13T20:08:55.926Z,3.50
2018-01-13T20:11:23.063Z,3.90
2018-01-13T20:13:49.474Z,3.90
2018-01-13T20:16:15.898Z,3.90
2018-01-13T20:18:42.342Z,3.90
2018-01-13T20:21:08.791Z,4.00
2018-01-13T20:23:35.224Z,3.90
2018-01-13T20:26:01.692Z,3.90
2018-01-13T20:28:28.055Z,4.00
2018-01-13T20:30:55.215Z,3.90
2018-01-13T20:33:21.662Z,3.90
2018-01-13T20:35:48.062Z,4.00
2018-01-13T20:38:14.503Z,3.90
2018-01-13T20:40:41.656Z,4.00
2018-01-13T20:43:08.048Z,3.90
2018-01-13T20:45:34.527Z,4.00
2018-01-13T20:48:00.936Z,4.00
2018-01-13T20:50:27.373Z,4.00
2018-01-13T20:52:53.756Z,4.00
2018-01-13T20:55:20.190Z,4.30
2018-01-13T20:57:47.425Z,4.00
2018-01-13T21:00:13.873Z,3.90
2018-01-13T21:02:40.234Z,4.00
2018-01-13T21:05:06.702Z,4.00
2018-01-13T21:07:33.872Z,4.00
2018-01-13T21:10:00.277Z,4.00
2018-01-13T21:12:27.461Z,4.00
2018-01-13T21:14:53.993Z,4.00
2018-01-13T21:17:20.397Z,4.00
2018-01-13T21:19:46.833Z,4.00
2018-01-13T21:22:13.985Z,4.00
2018-01-13T21:24:40.390Z,4.00
2018-01-13T21:27:06.848Z,4.10
2018-01-13T21:29:33.230Z,4.10
2018-01-13T21:31:59.699Z,4.10
2018-01-13T21:34:26.103Z,4.20
2018-01-13T21:36:52.471Z,4.40
2018-01-13T21:39:18.862Z,4.40
2018-01-13T21:41:46.047Z,4.70
2018-01-13T21:44:12.455Z,4.70
2018-01-13T21:46:38.851Z,4.80
2018-01-13T21:49:05.438Z,4.90
2018-01-13T21:51:31.837Z,5.00
2018-01-13T21:53:59.088Z,5.10
2018-01-13T21:56:25.451Z,5.00
2018-01-13T21:58:51.819Z,4.90
2018-01-13T22:01:18.234Z,5.10
2018-01-13T22:03:45.374Z,5.10
2018-01-13T22:06:11.723Z,5.10
2018-01-13T22:08:38.202Z,5.20
2018-01-13T22:11:05.484Z,5.10
2018-01-13T22:13:31.892Z,5.10
2018-01-13T22:16:00.070Z,5.10
2018-01-13T22:18:26.460Z,5.10
2018-01-13T22:20:52.854Z,5.10
2018-01-13T22:23:19.987Z,5.10
2018-01-13T22:25:46.403Z,5.10
2018-01-13T22:28:12.772Z,5.00
2018-01-13T22:30:39.995Z,5.00
2018-01-13T22:33:07.043Z,5.00
2018-01-13T22:35:33.474Z,5.00
2018-01-13T22:37:59.828Z,5.00
2018-01-13T22:40:26.245Z,5.00
2018-01-13T22:42:52.619Z,5.00
2018-01-13T22:45:19.009Z,5.00
2018-01-13T22:47:45.453Z,5.00
2018-01-13T22:50:11.832Z,4.90
2018-01-13T22:52:38.225Z,4.90
2018-01-13T22:55:04.683Z,4.90
2018-01-13T22:57:31.793Z,4.90
2018-01-13T22:59:58.166Z,4.90
2018-01-13T23:02:24.767Z,5.30
2018-01-13T23:04:51.121Z,4.90
2018-01-13T23:07:18.242Z,4.90
2018-01-13T23:09:44.570Z,4.90
2018-01-13T23:12:10.950Z,5.00
2018-01-13T23:14:37.338Z,5.00
2018-01-13T23:17:04.821Z,5.00
2018-01-13T23:19:31.228Z,4.90
2018-01-13T23:21:57.598Z,5.30
2018-01-13T23:24:24.713Z,4.90
2018-01-13T23:26:51.097Z,4.90
2018-01-13T23:29:17.506Z,5.00
2018-01-13T23:31:44.615Z,5.00
2018-01-13T23:34:11.022Z,5.00
2018-01-13T23:36:37.389Z,5.00
2018-01-13T23:39:05.022Z,4.90
2018-01-13T23:41:31.453Z,5.00
2018-01-13T23:43:57.804Z,4.90
2018-01-13T23:46:24.159Z,4.90
2018-01-13T23:48:50.495Z,4.90
2018-01-13T23:51:17.655Z,4.90
2018-01-13T23:53:43.998Z,4.80
2018-01-13T23:56:10.411Z,4.60
2018-01-13T23:58:36.763Z,4.90
